Time;durP1;ratioP1;P1;durP2;ratioP2;P2;SDS_P1;SDS_P2;PMS_P1;PMS_P2;Temp;Humidity;BMP_temperature;BMP_pressure;BME280_temperature;BME280_humidity;BME280_pressure;Samples;Min_cycle;Max_cycle;Signal;HPM_P1;HPM_P2
2023/10/20 00:00:06;;;;;;;2.90;2.67;;;19.50;72.10;;;;;;5064296;28;20036;-82
2023/10/20 00:02:33;;;;;;;2.80;2.60;;;19.50;72.20;;;;;;5063810;28;20105;-80
2023/10/20 00:04:59;;;;;;;2.70;2.50;;;19.50;72.20;;;;;;5064207;28;20036;-80
2023/10/20 00:07:26;;;;;;;2.15;1.95;;;19.50;72.30;;;;;;5063494;28;20040;-79
2023/10/20 00:09:53;;;;;;;2.03;1.92;;;19.50;72.40;;;;;;5063143;28;20029;-80
2023/10/20 00:12:19;;;;;;;2.20;2.10;;;19.50;72.20;;;;;;5060131;28;20119;-80
2023/10/20 00:14:45;;;;;;;2.42;2.22;;;19.50;72.20;;;;;;5064995;28;20174;-80
2023/10/20 00:17:10;;;;;;;2.17;2.08;;;19.50;72.20;;;;;;5061377;28;20519;-80
2023/10/20 00:19:36;;;;;;;2.00;1.90;;;19.50;72.20;;;;;;5060203;28;20037;-80
2023/10/20 00:22:01;;;;;;;1.95;1.85;;;19.50;72.20;;;;;;5063006;28;20040;-80
2023/10/20 00:24:27;;;;;;;2.33;2.22;;;19.50;72.20;;;;;;5062188;28;20049;-80
2023/10/20 00:26:52;;;;;;;2.03;1.92;;;19.50;72.20;;;;;;5062977;28;20048;-80
2023/10/20 00:29:19;;;;;;;1.92;1.80;;;19.50;72.20;;;;;;5060459;28;20036;-81
2023/10/20 00:31:44;;;;;;;1.77;1.67;;;19.50;72.20;;;;;;5063853;28;20036;-81
2023/10/20 00:34:10;;;;;;;1.80;1.70;;;19.50;72.20;;;;;;5062778;28;20040;-80
2023/10/20 00:36:35;;;;;;;2.90;2.00;;;19.50;72.20;;;;;;5064520;28;20056;-81
2023/10/20 00:39:02;;;;;;;2.15;2.05;;;19.40;72.10;;;;;;5062298;28;20041;-80
2023/10/20 00:41:28;;;;;;;1.98;1.88;;;19.50;72.30;;;;;;5063213;28;20048;-80
2023/10/20 00:43:53;;;;;;;1.88;1.77;;;19.40;72.30;;;;;;5063567;28;20101;-81
2023/10/20 00:46:19;;;;;;;2.90;2.03;;;19.50;72.30;;;;;;5060342;28;20115;-80
2023/10/20 00:48:45;;;;;;;2.30;2.10;;;19.40;72.30;;;;;;5044940;28;20032;-81
2023/10/20 00:51:10;;;;;;;1.92;1.77;;;19.50;72.30;;;;;;5061646;28;20748;-80
2023/10/20 00:53:36;;;;;;;1.73;1.63;;;19.50;72.30;;;;;;5062180;28;20296;-81
2023/10/20 00:56:04;;;;;;;1.48;1.38;;;19.40;72.20;;;;;;5062179;28;20587;-80
2023/10/20 00:58:29;;;;;;;1.70;1.60;;;19.40;72.20;;;;;;5062337;28;20044;-80
2023/10/20 01:00:55;;;;;;;2.00;1.85;;;19.40;72.20;;;;;;5076948;28;20033;-80
2023/10/20 01:03:22;;;;;;;1.70;1.60;;;19.40;72.30;;;;;;5060539;28;20041;-79
2023/10/20 01:05:47;;;;;;;1.80;1.70;;;19.40;72.30;;;;;;5064523;28;20048;-80
2023/10/20 01:08:14;;;;;;;1.63;1.40;;;19.40;72.30;;;;;;5094398;28;20037;-80
2023/10/20 01:10:39;;;;;;;1.42;1.33;;;19.40;72.20;;;;;;5060755;28;20049;-80
2023/10/20 01:13:05;;;;;;;1.73;1.63;;;19.40;72.20;;;;;;5063424;28;20028;-80
2023/10/20 01:15:31;;;;;;;1.63;1.52;;;19.40;72.30;;;;;;5061913;28;20045;-80
2023/10/20 01:17:57;;;;;;;1.40;1.30;;;19.40;72.30;;;;;;5061130;28;20497;-80
2023/10/20 01:20:23;;;;;;;2.30;1.70;;;19.40;72.30;;;;;;5092159;28;20171;-79
2023/10/20 01:22:49;;;;;;;1.80;1.70;;;19.40;73.10;;;;;;5058025;28;20155;-80
2023/10/20 01:25:14;;;;;;;2.22;1.90;;;19.40;72.30;;;;;;5060855;28;20502;-80
2023/10/20 01:27:40;;;;;;;1.60;1.50;;;19.40;72.30;;;;;;5041268;28;20041;-79
2023/10/20 01:30:06;;;;;;;2.08;1.98;;;19.40;72.30;;;;;;5060924;28;20032;-80
2023/10/20 01:32:32;;;;;;;1.70;1.60;;;19.40;72.30;;;;;;5062781;28;20141;-78
2023/10/20 01:34:57;;;;;;;1.60;1.50;;;19.40;72.20;;;;;;5061975;28;20695;-79
2023/10/20 01:37:23;;;;;;;1.50;1.40;;;19.40;72.30;;;;;;5063239;28;20040;-79
2023/10/20 01:39:49;;;;;;;1.90;1.52;;;19.40;72.20;;;;;;5066760;28;20037;-80
2023/10/20 01:42:14;;;;;;;1.50;1.40;;;19.40;72.20;;;;;;5064420;28;20037;-80
2023/10/20 01:44:40;;;;;;;1.65;1.48;;;19.40;73.00;;;;;;5066236;28;20053;-79
2023/10/20 01:47:05;;;;;;;1.35;1.25;;;19.40;73.00;;;;;;5067228;28;20044;-79
2023/10/20 01:49:31;;;;;;;1.08;1.08;;;19.40;72.30;;;;;;5066430;28;20040;-80
2023/10/20 01:51:57;;;;;;;1.65;1.50;;;19.40;72.20;;;;;;5066061;28;20114;-80
2023/10/20 01:54:24;;;;;;;1.40;1.30;;;19.40;72.20;;;;;;5066254;28;20505;-79
2023/10/20 01:56:49;;;;;;;1.33;1.30;;;19.40;72.20;;;;;;5066441;28;20505;-80
2023/10/20 01:59:15;;;;;;;1.20;1.20;;;19.40;72.20;;;;;;5064869;28;20044;-79
2023/10/20 02:01:41;;;;;;;1.17;1.17;;;19.40;72.20;;;;;;5063394;28;20052;-79
2023/10/20 02:04:07;;;;;;;1.45;1.35;;;19.40;72.20;;;;;;5066746;28;20057;-79
2023/10/20 02:06:33;;;;;;;1.30;1.25;;;19.40;72.20;;;;;;5063749;28;20041;-79
2023/10/20 02:08:59;;;;;;;1.33;1.33;;;19.40;72.20;;;;;;5066527;28;20077;-80
2023/10/20 02:11:25;;;;;;;1.27;1.17;;;19.40;72.20;;;;;;5064836;28;20047;-79
2023/10/20 02:13:50;;;;;;;1.65;1.55;;;19.40;72.30;;;;;;5064216;28;20125;-79
2023/10/20 02:16:16;;;;;;;1.13;1.13;;;19.40;72.20;;;;;;5063471;28;20513;-80
2023/10/20 02:18:41;;;;;;;1.23;1.13;;;19.40;72.20;;;;;;5061975;28;20145;-80
2023/10/20 02:21:09;;;;;;;1.13;1.10;;;19.40;72.30;;;;;;5066526;28;20098;-80
2023/10/20 02:23:35;;;;;;;1.50;1.40;;;19.40;72.20;;;;;;5067557;28;20143;-79
2023/10/20 02:26:05;;;;;;;1.42;1.33;;;19.40;72.30;;;;;;5064693;28;20032;-79
2023/10/20 02:28:35;;;;;;;1.30;1.20;;;19.40;72.30;;;;;;5061781;28;20433;-79
2023/10/20 02:31:01;;;;;;;1.00;1.00;;;19.40;72.30;;;;;;5065191;28;20089;-79
2023/10/20 02:33:27;;;;;;;1.52;1.30;;;19.40;72.30;;;;;;5064421;28;20432;-80
2023/10/20 02:35:54;;;;;;;1.60;1.50;;;19.40;72.20;;;;;;5065377;28;20101;-79
2023/10/20 02:38:20;;;;;;;1.17;1.08;;;19.40;72.90;;;;;;5063514;28;20110;-80
2023/10/20 02:40:50;;;;;;;1.20;1.20;;;19.40;72.20;;;;;;5065655;28;20067;-80
2023/10/20 02:43:15;;;;;;;1.23;1.20;;;19.40;72.10;;;;;;5061239;28;20048;-79
2023/10/20 02:45:53;;;;;;;1.05;0.98;;;19.40;72.10;;;;;;5047380;28;20885;-79
2023/10/20 02:48:22;;;;;;;1.13;1.08;;;19.40;72.10;;;;;;5095045;28;20071;-79
2023/10/20 02:50:48;;;;;;;0.95;0.95;;;19.40;72.10;;;;;;5096850;28;20037;-80
2023/10/20 02:53:14;;;;;;;1.23;1.13;;;19.40;72.10;;;;;;5065340;28;20048;-80
2023/10/20 02:55:42;;;;;;;1.30;1.20;;;19.40;72.20;;;;;;5062656;28;20699;-79
2023/10/20 02:58:10;;;;;;;1.23;1.13;;;19.40;72.10;;;;;;5062822;28;20123;-79
2023/10/20 03:00:39;;;;;;;1.38;1.27;;;19.40;72.20;;;;;;5059754;28;20060;-79
2023/10/20 03:03:05;;;;;;;1.30;1.20;;;19.40;72.20;;;;;;5064010;28;20111;-79
2023/10/20 03:05:31;;;;;;;1.58;1.30;;;19.30;72.10;;;;;;5063854;28;20506;-78
2023/10/20 03:08:00;;;;;;;0.93;0.93;;;19.40;72.20;;;;;;5061277;28;20149;-79
2023/10/20 03:10:26;;;;;;;0.98;0.98;;;19.40;72.20;;;;;;5065405;28;20076;-78
2023/10/20 03:12:51;;;;;;;1.17;1.10;;;19.40;72.20;;;;;;5065148;28;20056;-79
2023/10/20 03:15:17;;;;;;;1.10;1.10;;;19.40;72.30;;;;;;5067847;28;20490;-79
2023/10/20 03:17:43;;;;;;;1.05;1.05;;;19.40;72.20;;;;;;5067374;28;20040;-79
2023/10/20 03:20:09;;;;;;;0.95;0.95;;;19.30;72.20;;;;;;5065644;28;20029;-79
2023/10/20 03:22:37;;;;;;;1.30;1.20;;;19.30;72.10;;;;;;5061818;28;20079;-80
2023/10/20 03:25:03;;;;;;;1.65;1.55;;;19.30;72.10;;;;;;5032014;28;20624;-80
2023/10/20 03:27:29;;;;;;;1.33;1.15;;;19.30;72.10;;;;;;5060627;28;20041;-79
2023/10/20 03:29:55;;;;;;;0.95;0.90;;;19.40;72.20;;;;;;5067139;28;20398;-79
2023/10/20 03:32:21;;;;;;;1.15;1.00;;;19.40;72.10;;;;;;5066011;28;20044;-79
2023/10/20 03:34:46;;;;;;;0.80;0.80;;;19.40;72.10;;;;;;5062995;28;20102;-79
2023/10/20 03:37:13;;;;;;;0.90;0.90;;;19.30;72.10;;;;;;5061083;28;20044;-79
2023/10/20 03:39:39;;;;;;;1.10;1.10;;;19.30;72.10;;;;;;5064355;28;20074;-79
2023/10/20 03:42:07;;;;;;;0.80;0.75;;;19.30;72.20;;;;;;5064937;28;20100;-80
2023/10/20 03:44:33;;;;;;;1.08;1.00;;;19.40;72.30;;;;;;5062702;28;20494;-78
2023/10/20 03:46:59;;;;;;;0.80;0.80;;;19.30;72.10;;;;;;5063030;28;20080;-79
2023/10/20 03:49:25;;;;;;;0.80;0.80;;;19.30;72.20;;;;;;5064124;28;20038;-80
2023/10/20 03:51:51;;;;;;;0.80;0.70;;;19.30;72.20;;;;;;5063704;28;20040;-80
2023/10/20 03:54:24;;;;;;;1.10;1.10;;;19.30;72.20;;;;;;5062254;28;20048;-80
2023/10/20 03:56:49;;;;;;;0.90;0.90;;;19.40;72.30;;;;;;5062055;28;20047;-80
2023/10/20 03:59:16;;;;;;;0.93;0.93;;;19.30;72.30;;;;;;5063000;28;20482;-80
2023/10/20 04:01:42;;;;;;;0.93;0.93;;;19.30;72.20;;;;;;5058993;28;20032;-79
2023/10/20 04:04:11;;;;;;;0.70;0.70;;;19.30;72.20;;;;;;5063842;28;20040;-79
2023/10/20 04:06:37;;;;;;;1.05;0.95;;;19.30;72.20;;;;;;5061344;28;20044;-79
2023/10/20 04:09:08;;;;;;;1.05;0.95;;;19.40;72.30;;;;;;5062489;28;20056;-79
2023/10/20 04:11:34;;;;;;;1.10;1.00;;;19.30;72.10;;;;;;5063072;28;20055;-78
2023/10/20 04:14:05;;;;;;;1.17;1.10;;;19.30;72.10;;;;;;5062505;28;20688;-79
2023/10/20 04:16:37;;;;;;;0.90;0.90;;;19.40;72.20;;;;;;5059105;28;20552;-79
2023/10/20 04:19:04;;;;;;;0.95;0.80;;;19.30;72.20;;;;;;5063051;28;20604;-79
2023/10/20 04:21:30;;;;;;;0.90;0.90;;;19.30;72.30;;;;;;5057703;28;20375;-77
2023/10/20 04:23:55;;;;;;;0.80;0.80;;;19.30;72.20;;;;;;5061440;28;20411;-79
2023/10/20 04:26:21;;;;;;;1.00;0.88;;;19.30;72.20;;;;;;5061168;28;20131;-80
2023/10/20 04:28:48;;;;;;;0.75;0.57;;;19.30;72.40;;;;;;5061143;28;20052;-80
2023/10/20 04:45:36;;;;;;;;;;;19.30;72.30;;;;;;5062519;28;20051;-81
2023/10/20 04:58:39;;;;;;;0.63;0.63;;;19.30;72.30;;;;;;4999525;28;20389;-81
2023/10/20 05:01:16;;;;;;;1.27;1.02;;;19.30;72.30;;;;;;5000524;28;20496;-81
2023/10/20 05:03:52;;;;;;;0.70;0.70;;;19.30;72.40;;;;;;5004177;28;20056;-84
2023/10/20 05:06:26;;;;;;;1.00;0.90;;;19.30;72.40;;;;;;5020448;28;20049;-81
2023/10/20 05:08:52;;;;;;;0.60;0.60;;;19.30;72.60;;;;;;5020596;28;20049;-80
2023/10/20 05:11:18;;;;;;;1.10;1.05;;;19.30;72.50;;;;;;5022511;28;20041;-81
2023/10/20 05:13:44;;;;;;;0.88;0.80;;;19.30;72.80;;;;;;5020602;28;20522;-79
2023/10/20 05:16:09;;;;;;;0.70;0.70;;;19.40;73.10;;;;;;5018994;28;20041;-80
2023/10/20 05:18:37;;;;;;;0.80;0.80;;;19.30;72.80;;;;;;5024050;28;20109;-79
2023/10/20 05:21:04;;;;;;;0.90;0.90;;;19.40;72.80;;;;;;5005599;28;20049;-80
2023/10/20 05:23:30;;;;;;;1.45;1.10;;;19.40;73.20;;;;;;5022699;28;20120;-81
2023/10/20 05:25:55;;;;;;;1.08;0.98;;;19.40;73.00;;;;;;5018122;28;20132;-80
2023/10/20 05:28:23;;;;;;;0.80;0.80;;;19.40;73.40;;;;;;5039858;28;20579;-80
2023/10/20 05:30:48;;;;;;;1.73;0.90;;;19.40;73.60;;;;;;5062381;28;20529;-80
2023/10/20 05:33:15;;;;;;;0.70;0.70;;;19.40;73.00;;;;;;5064409;28;20080;-80
2023/10/20 05:35:40;;;;;;;1.20;0.95;;;19.30;73.10;;;;;;5063858;28;20064;-80
2023/10/20 05:38:06;;;;;;;0.95;0.80;;;19.40;73.00;;;;;;5060491;28;20064;-80
2023/10/20 05:40:35;;;;;;;1.23;1.05;;;19.30;72.80;;;;;;5059343;28;20043;-80
2023/10/20 05:43:01;;;;;;;1.17;1.08;;;19.30;72.90;;;;;;5060345;28;20045;-79
2023/10/20 05:45:32;;;;;;;1.20;1.10;;;19.40;73.10;;;;;;5064623;28;20068;-80
2023/10/20 05:47:59;;;;;;;1.33;1.05;;;19.40;73.20;;;;;;5063413;28;20044;-80
2023/10/20 05:50:24;;;;;;;1.17;1.08;;;19.40;73.90;;;;;;5063126;28;20041;-79
2023/10/20 05:52:53;;;;;;;1.33;1.23;;;19.30;72.90;;;;;;5096155;28;20567;-78
2023/10/20 05:55:18;;;;;;;2.97;1.10;;;19.30;72.90;;;;;;5066568;28;20048;-80
2023/10/20 05:57:45;;;;;;;1.20;1.10;;;19.30;73.20;;;;;;5063360;28;20033;-80
2023/10/20 06:00:13;;;;;;;1.15;1.10;;;19.30;73.10;;;;;;5065530;28;20505;-79
2023/10/20 06:02:40;;;;;;;0.90;0.90;;;19.40;73.30;;;;;;5065180;28;20040;-81
2023/10/20 06:05:07;;;;;;;1.20;1.10;;;19.40;73.00;;;;;;4710525;28;10000625;-81
2023/10/20 06:07:32;;;;;;;1.10;1.02;;;19.30;73.20;;;;;;5044765;28;20406;-81
2023/10/20 06:09:58;;;;;;;3.22;1.20;;;19.30;73.30;;;;;;5061525;28;20047;-80
2023/10/20 06:12:24;;;;;;;1.27;1.10;;;19.30;73.20;;;;;;5060307;28;20518;-81
2023/10/20 06:14:49;;;;;;;1.20;1.10;;;19.30;73.30;;;;;;5062530;28;20549;-79
2023/10/20 06:17:17;;;;;;;1.23;1.08;;;19.30;73.30;;;;;;5062958;28;20037;-80
2023/10/20 06:19:44;;;;;;;1.38;1.27;;;19.40;73.30;;;;;;5059009;28;20068;-80
2023/10/20 06:22:10;;;;;;;1.50;1.13;;;19.40;73.20;;;;;;5044874;28;20040;-80
2023/10/20 06:24:35;;;;;;;1.30;1.25;;;19.40;73.30;;;;;;5059875;28;20067;-80
2023/10/20 06:27:04;;;;;;;1.45;1.35;;;19.40;73.00;;;;;;5061065;28;20044;-80
2023/10/20 06:34:41;;;;;;;1.80;1.60;;;19.30;72.80;;;;;;5065103;28;20144;-81
2023/10/20 06:37:08;;;;;;;1.45;1.35;;;19.40;72.60;;;;;;5058933;28;20036;-82
2023/10/20 06:39:35;;;;;;;1.85;1.75;;;19.40;72.60;;;;;;5085073;28;20478;-82
2023/10/20 06:42:00;;;;;;;2.15;2.05;;;19.30;72.50;;;;;;5064102;28;20044;-82
2023/10/20 06:44:26;;;;;;;2.88;2.67;;;19.30;73.20;;;;;;5067640;28;20571;-82
2023/10/20 06:46:52;;;;;;;2.63;2.20;;;19.30;73.20;;;;;;5061833;28;20032;-84
2023/10/20 06:49:18;;;;;;;2.92;2.47;;;19.30;73.10;;;;;;5060544;28;20032;-84
2023/10/20 06:51:45;;;;;;;1.85;1.75;;;19.30;73.10;;;;;;5056633;28;20619;-83
2023/10/20 06:54:14;;;;;;;2.33;2.13;;;19.30;74.00;;;;;;5062664;28;20048;-85
2023/10/20 06:56:40;;;;;;;1.63;1.52;;;19.30;73.70;;;;;;5093047;28;20033;-82
2023/10/20 06:59:05;;;;;;;1.45;1.35;;;19.30;73.20;;;;;;5059520;28;20506;-84
2023/10/20 07:01:33;;;;;;;1.60;1.50;;;19.40;72.90;;;;;;5062040;28;20044;-83
2023/10/20 07:03:59;;;;;;;1.58;1.48;;;19.30;72.90;;;;;;5063135;28;20091;-82
2023/10/20 07:06:25;;;;;;;1.52;1.42;;;19.30;73.20;;;;;;5060814;28;20045;-81
2023/10/20 07:08:50;;;;;;;1.80;1.70;;;19.30;73.20;;;;;;5064359;28;20043;-82
2023/10/20 07:11:16;;;;;;;2.15;1.80;;;19.30;73.10;;;;;;5065628;28;20040;-81
2023/10/20 07:13:44;;;;;;;1.92;1.70;;;19.30;72.80;;;;;;5094263;28;20064;-82
2023/10/20 07:16:11;;;;;;;2.20;1.20;;;19.40;72.60;;;;;;5063805;28;20536;-82
2023/10/20 07:18:38;;;;;;;1.60;1.50;;;19.40;72.80;;;;;;5062291;28;20111;-81
2023/10/20 07:21:03;;;;;;;1.60;1.50;;;19.40;72.80;;;;;;5064936;28;20055;-81
2023/10/20 07:23:29;;;;;;;1.50;1.40;;;19.30;72.70;;;;;;5065932;28;20036;-80
2023/10/20 07:25:54;;;;;;;2.45;1.52;;;19.30;72.80;;;;;;5060920;28;20064;-80
2023/10/20 07:28:21;;;;;;;1.30;1.20;;;19.30;72.90;;;;;;5061272;28;20464;-80
2023/10/20 07:30:47;;;;;;;1.70;1.60;;;19.30;73.00;;;;;;5061338;28;20494;-79
2023/10/20 07:33:12;;;;;;;1.40;1.30;;;19.30;72.80;;;;;;5065262;28;20090;-84
2023/10/20 07:35:38;;;;;;;1.52;1.20;;;19.30;72.80;;;;;;5065949;28;20421;-85
2023/10/20 07:38:04;;;;;;;1.35;1.25;;;19.30;72.70;;;;;;5061834;28;20045;-82
2023/10/20 07:40:34;;;;;;;1.33;1.23;;;19.30;72.70;;;;;;5061286;28;20045;-84
2023/10/20 07:43:00;;;;;;;1.42;1.38;;;19.30;72.60;;;;;;5055995;28;20055;-84
2023/10/20 07:45:28;;;;;;;1.33;1.23;;;19.30;72.60;;;;;;5064659;28;20045;-84
2023/10/20 07:47:53;;;;;;;0.98;0.98;;;19.40;72.60;;;;;;5053658;28;20116;-84
2023/10/20 07:50:19;;;;;;;1.45;1.33;;;19.30;72.60;;;;;;5049342;28;20052;-83
2023/10/20 07:52:45;;;;;;;1.40;1.30;;;19.30;72.70;;;;;;5072729;28;20494;-81
2023/10/20 07:55:10;;;;;;;1.33;1.23;;;19.30;72.70;;;;;;5056292;28;20040;-82
2023/10/20 07:57:36;;;;;;;1.10;1.10;;;19.30;72.70;;;;;;5063056;28;20522;-81
2023/10/20 08:00:02;;;;;;;1.33;1.23;;;19.30;72.80;;;;;;5062494;28;20064;-81
2023/10/20 08:02:28;;;;;;;0.95;0.95;;;19.30;72.70;;;;;;5060750;28;20143;-81
2023/10/20 08:04:53;;;;;;;0.95;0.95;;;19.30;72.70;;;;;;5050481;28;20509;-83
2023/10/20 08:07:19;;;;;;;0.90;0.90;;;19.30;72.70;;;;;;5064391;28;20044;-79
2023/10/20 08:09:44;;;;;;;1.10;1.10;;;19.30;72.70;;;;;;5062631;28;20453;-79
2023/10/20 08:12:10;;;;;;;1.30;1.20;;;19.30;72.70;;;;;;5062443;28;20068;-79
2023/10/20 08:14:35;;;;;;;1.25;1.23;;;19.30;72.80;;;;;;5060601;28;20045;-79
2023/10/20 08:17:03;;;;;;;1.40;1.08;;;19.30;72.80;;;;;;5063914;28;20036;-79
2023/10/20 08:19:30;;;;;;;1.70;1.48;;;19.30;73.00;;;;;;5063337;28;20036;-79
2023/10/20 08:21:56;;;;;;;1.10;1.10;;;19.30;72.70;;;;;;5057763;28;20049;-79
2023/10/20 08:24:21;;;;;;;1.20;1.13;;;19.30;72.60;;;;;;5060578;28;20082;-79
2023/10/20 08:26:47;;;;;;;1.23;1.13;;;19.30;72.60;;;;;;5064351;28;20075;-78
2023/10/20 08:29:13;;;;;;;1.17;1.08;;;19.30;72.70;;;;;;5059233;28;20024;-79
2023/10/20 08:31:39;;;;;;;1.20;1.10;;;19.30;72.80;;;;;;5059942;28;20028;-78
2023/10/20 08:34:05;;;;;;;1.10;1.10;;;19.30;72.60;;;;;;5059233;28;20051;-78
2023/10/20 08:36:30;;;;;;;1.35;1.25;;;19.30;72.60;;;;;;5063607;28;20533;-78
2023/10/20 08:39:01;;;;;;;1.00;1.00;;;19.30;72.70;;;;;;5058168;28;20641;-77
2023/10/20 08:41:26;;;;;;;1.02;1.00;;;19.30;72.70;;;;;;5063169;28;20060;-78
2023/10/20 08:43:52;;;;;;;1.02;1.02;;;19.40;72.90;;;;;;5059619;28;20079;-77
2023/10/20 08:46:18;;;;;;;1.13;0.95;;;19.30;73.00;;;;;;5060837;28;20082;-78
2023/10/20 08:48:44;;;;;;;0.88;0.88;;;19.30;72.90;;;;;;5059271;28;20102;-77
2023/10/20 08:51:11;;;;;;;0.98;0.98;;;19.30;72.80;;;;;;5025259;28;20044;-77
2023/10/20 08:53:37;;;;;;;0.88;0.88;;;19.30;72.60;;;;;;5060554;28;20136;-78
2023/10/20 08:56:03;;;;;;;1.10;1.10;;;19.30;72.60;;;;;;5060589;28;20124;-77
2023/10/20 08:58:29;;;;;;;0.98;0.98;;;19.30;72.70;;;;;;5061144;28;20508;-78
2023/10/20 09:00:55;;;;;;;0.80;0.80;;;19.30;72.70;;;;;;5060055;28;20079;-78
2023/10/20 09:03:21;;;;;;;0.93;0.90;;;19.30;72.60;;;;;;5061736;28;20071;-77
2023/10/20 09:05:46;;;;;;;0.80;0.80;;;19.30;72.60;;;;;;5062210;28;20101;-76
2023/10/20 09:08:12;;;;;;;1.00;1.00;;;19.30;72.60;;;;;;5059671;28;20063;-77
2023/10/20 09:10:42;;;;;;;3.60;1.20;;;19.30;72.60;;;;;;5062818;28;20560;-77
2023/10/20 09:13:08;;;;;;;1.10;1.00;;;19.30;72.60;;;;;;5057708;28;20037;-78
2023/10/20 09:15:34;;;;;;;0.70;0.70;;;19.30;72.60;;;;;;5063328;28;20036;-79
2023/10/20 09:18:00;;;;;;;1.40;1.30;;;19.40;72.70;;;;;;5060054;28;20409;-79
2023/10/20 09:20:26;;;;;;;1.30;1.20;;;19.30;73.10;;;;;;5060298;28;20047;-77
2023/10/20 09:22:52;;;;;;;0.88;0.88;;;19.30;73.10;;;;;;5057686;28;20444;-79
2023/10/20 09:25:18;;;;;;;0.90;0.90;;;19.30;73.20;;;;;;5086598;28;20540;-78
2023/10/20 09:27:43;;;;;;;0.90;0.88;;;19.30;73.20;;;;;;5061133;28;20045;-79
2023/10/20 09:30:09;;;;;;;0.93;0.93;;;19.30;73.10;;;;;;5060871;28;20410;-79
2023/10/20 09:32:38;;;;;;;1.00;1.00;;;19.30;73.10;;;;;;5063390;28;20501;-79
2023/10/20 09:35:04;;;;;;;1.60;1.08;;;19.30;73.30;;;;;;5057597;28;20099;-79
2023/10/20 09:37:30;;;;;;;1.20;1.15;;;19.30;73.30;;;;;;5073496;28;20145;-79
2023/10/20 09:40:02;;;;;;;1.55;1.45;;;19.30;73.30;;;;;;5062041;28;20041;-79
2023/10/20 09:42:28;;;;;;;0.80;0.80;;;19.30;73.20;;;;;;5058264;28;20434;-78
2023/10/20 09:45:08;;;;;;;1.63;1.27;;;19.30;73.10;;;;;;5062970;28;20048;-78
2023/10/20 09:47:34;;;;;;;0.93;0.77;;;19.30;74.50;;;;;;5060820;28;20075;-79
2023/10/20 09:50:00;;;;;;;1.95;1.30;;;19.30;73.80;;;;;;5041350;28;20052;-77
2023/10/20 09:52:25;;;;;;;1.23;0.85;;;19.30;73.60;;;;;;5040134;28;20093;-79
2023/10/20 09:54:51;;;;;;;1.08;1.02;;;19.30;73.50;;;;;;5058706;28;20040;-78
2023/10/20 09:57:19;;;;;;;1.35;1.00;;;19.30;74.00;;;;;;5059599;28;20048;-79
2023/10/20 09:59:50;;;;;;;0.80;0.80;;;19.30;73.60;;;;;;5065690;28;20044;-79
2023/10/20 10:02:28;;;;;;;0.77;0.73;;;19.30;73.70;;;;;;5063557;28;20148;-79
2023/10/20 10:04:54;;;;;;;2.10;0.80;;;19.30;73.60;;;;;;5063371;28;20044;-79
2023/10/20 10:07:28;;;;;;;0.90;0.90;;;19.30;73.30;;;;;;5064409;28;20047;-79
2023/10/20 10:09:55;;;;;;;;;;;19.30;73.20;;;;;;5062779;28;20575;-78
2023/10/20 10:12:21;;;;;;;0.93;0.93;;;19.40;73.20;;;;;;5060825;28;20386;-79
2023/10/20 10:15:01;;;;;;;2.08;0.90;;;19.40;73.20;;;;;;5065097;28;20047;-78
2023/10/20 10:17:27;;;;;;;0.90;0.80;;;19.40;73.30;;;;;;5066579;28;20131;-79
2023/10/20 10:19:53;;;;;;;0.88;0.82;;;19.40;73.40;;;;;;5059707;28;20120;-78
2023/10/20 10:22:26;;;;;;;2.55;1.30;;;19.40;73.40;;;;;;5065015;28;20041;-78
2023/10/20 10:24:55;;;;;;;2.15;1.13;;;19.40;73.20;;;;;;5060606;28;20037;-79
2023/10/20 10:27:26;;;;;;;1.77;1.00;;;19.40;73.40;;;;;;5064148;28;20671;-79
2023/10/20 10:30:00;;;;;;;1.98;1.05;;;19.40;73.40;;;;;;5066381;28;20099;-77
2023/10/20 10:32:36;;;;;;;2.25;1.20;;;19.40;73.40;;;;;;5063325;28;20052;-79
2023/10/20 10:35:03;;;;;;;3.08;0.98;;;19.40;73.40;;;;;;5062819;28;20510;-79
2023/10/20 10:37:32;;;;;;;2.92;0.90;;;19.40;73.30;;;;;;4692427;28;10000377;-78
2023/10/20 10:40:15;;;;;;;1.95;0.98;;;19.40;73.30;;;;;;5043784;28;20190;-78
2023/10/20 10:42:42;;;;;;;2.10;1.10;;;19.40;73.30;;;;;;5060447;28;20048;-77
2023/10/20 10:45:18;;;;;;;2.72;1.38;;;19.40;73.40;;;;;;5059552;28;20136;-77
2023/10/20 10:47:45;;;;;;;1.20;1.08;;;19.40;73.40;;;;;;5063854;28;20033;-78
2023/10/20 10:50:11;;;;;;;2.10;1.25;;;19.40;73.40;;;;;;5058841;28;20037;-77
2023/10/20 10:52:36;;;;;;;3.20;1.10;;;19.40;73.30;;;;;;5060046;28;20048;-77
2023/10/20 10:55:03;;;;;;;5.30;1.58;;;19.40;73.10;;;;;;5060632;28;20063;-77
2023/10/20 10:57:30;;;;;;;3.53;1.27;;;19.50;73.30;;;;;;5060769;28;20064;-78
2023/10/20 10:59:55;;;;;;;3.33;1.40;;;19.40;73.30;;;;;;5061571;28;20039;-78
2023/10/20 11:02:21;;;;;;;2.60;1.58;;;19.40;73.00;;;;;;5074843;28;20052;-79
2023/10/20 11:04:46;;;;;;;3.30;1.85;;;19.50;73.00;;;;;;5093136;28;20059;-77
2023/10/20 11:07:13;;;;;;;5.15;1.73;;;19.50;73.00;;;;;;5057237;28;20597;-78
2023/10/20 11:09:39;;;;;;;2.67;1.85;;;19.40;72.90;;;;;;5083108;28;20051;-78
2023/10/20 11:12:13;;;;;;;3.60;1.73;;;19.40;72.80;;;;;;5056682;28;20640;-78
2023/10/20 11:14:39;;;;;;;4.78;1.92;;;19.40;72.70;;;;;;5091508;28;20055;-78
2023/10/20 11:17:04;;;;;;;8.38;2.17;;;19.50;72.70;;;;;;5047847;28;20041;-78
2023/10/20 11:19:30;;;;;;;6.80;2.35;;;19.40;72.70;;;;;;5064360;28;20063;-78
2023/10/20 11:21:56;;;;;;;3.50;1.70;;;19.40;72.90;;;;;;5061656;28;20127;-77
2023/10/20 11:24:28;;;;;;;1.75;1.50;;;19.50;72.80;;;;;;5062061;28;20541;-78
2023/10/20 11:27:05;;;;;;;3.33;1.67;;;19.40;72.80;;;;;;5063889;28;20033;-78
2023/10/20 11:29:31;;;;;;;6.03;2.40;;;19.40;72.60;;;;;;5062921;28;20044;-78
2023/10/20 11:31:59;;;;;;;4.30;1.90;;;19.50;72.70;;;;;;5061822;28;20162;-78
2023/10/20 11:34:25;;;;;;;5.65;2.03;;;19.50;72.70;;;;;;5027026;28;20110;-78
2023/10/20 11:36:51;;;;;;;3.97;2.00;;;19.40;72.50;;;;;;5046777;28;20086;-79
2023/10/20 11:39:17;;;;;;;3.60;1.90;;;19.40;72.70;;;;;;5059716;28;20044;-78
2023/10/20 11:41:42;;;;;;;2.85;1.60;;;19.40;72.70;;;;;;5062891;28;20040;-78
2023/10/20 11:44:08;;;;;;;3.58;1.67;;;19.50;73.00;;;;;;5059191;28;20048;-78
2023/10/20 11:46:34;;;;;;;3.78;2.13;;;19.50;73.00;;;;;;5094988;28;20033;-77
2023/10/20 11:48:59;;;;;;;3.20;1.80;;;19.50;72.90;;;;;;5060648;28;20060;-78
2023/10/20 11:51:25;;;;;;;3.58;1.83;;;19.50;72.90;;;;;;5061727;28;20032;-79
2023/10/20 11:53:51;;;;;;;4.07;1.63;;;19.40;72.80;;;;;;4728343;28;10000210;-78
2023/10/20 11:56:17;;;;;;;4.07;1.67;;;19.50;73.10;;;;;;5024166;28;20431;-78
2023/10/20 11:58:42;;;;;;;3.25;1.17;;;19.50;73.40;;;;;;5056828;28;20048;-76
2023/10/20 12:01:08;;;;;;;4.68;1.38;;;19.50;72.90;;;;;;5052449;28;20040;-77
2023/10/20 12:03:33;;;;;;;2.83;1.55;;;19.50;73.20;;;;;;5057444;28;20051;-79
2023/10/20 12:05:59;;;;;;;3.40;1.80;;;19.50;73.00;;;;;;5058099;28;20044;-76
2023/10/20 12:08:25;;;;;;;2.83;1.63;;;19.50;72.80;;;;;;5062364;28;20105;-79
2023/10/20 12:10:50;;;;;;;1.70;1.25;;;19.50;72.80;;;;;;5070350;28;20062;-79
2023/10/20 12:13:16;;;;;;;1.98;1.42;;;19.50;72.80;;;;;;5090642;28;20040;-80
2023/10/20 12:15:42;;;;;;;2.17;1.40;;;19.50;72.70;;;;;;5061686;28;20039;-80
2023/10/20 12:18:07;;;;;;;2.92;2.00;;;19.50;72.70;;;;;;5045817;28;20028;-79
2023/10/20 12:20:33;;;;;;;1.70;1.30;;;19.50;73.60;;;;;;5063899;28;20153;-79
2023/10/20 12:22:59;;;;;;;2.55;1.63;;;19.50;72.80;;;;;;5059775;28;20048;-78
2023/10/20 12:25:25;;;;;;;4.15;1.60;;;19.50;72.80;;;;;;5060745;28;20055;-79
2023/10/20 12:27:51;;;;;;;1.85;1.20;;;19.40;72.60;;;;;;5058209;28;20036;-79
2023/10/20 12:30:17;;;;;;;1.85;1.20;;;19.50;72.60;;;;;;5057676;28;20041;-79
2023/10/20 12:32:43;;;;;;;3.00;1.40;;;19.40;72.60;;;;;;5063162;28;20058;-78
2023/10/20 12:35:12;;;;;;;1.92;1.30;;;19.50;72.70;;;;;;5057456;28;20398;-78
2023/10/20 12:37:38;;;;;;;1.30;0.98;;;19.50;72.70;;;;;;5060211;28;20173;-76
2023/10/20 12:40:05;;;;;;;3.65;1.20;;;19.50;73.50;;;;;;5058537;28;20540;-75
2023/10/20 12:42:33;;;;;;;1.42;1.33;;;19.50;72.70;;;;;;5091676;28;20052;-78
2023/10/20 12:45:01;;;;;;;2.30;1.65;;;19.50;72.70;;;;;;5061346;28;20044;-77
2023/10/20 12:47:27;;;;;;;2.88;1.40;;;19.50;72.70;;;;;;5060178;28;20131;-80
2023/10/20 12:49:55;;;;;;;2.13;1.42;;;19.50;72.60;;;;;;5060190;28;20123;-79
2023/10/20 12:52:21;;;;;;;1.60;1.10;;;19.50;72.60;;;;;;5092247;28;20052;-79
2023/10/20 12:54:47;;;;;;;1.20;1.10;;;19.50;72.60;;;;;;5062307;28;20044;-80
2023/10/20 12:57:12;;;;;;;1.38;1.00;;;19.50;72.60;;;;;;5058459;28;20075;-80
2023/10/20 12:59:38;;;;;;;1.70;1.40;;;19.50;72.50;;;;;;5063635;28;20032;-80
2023/10/20 13:02:04;;;;;;;2.80;1.17;;;19.50;72.60;;;;;;5058873;28;20040;-79
2023/10/20 13:04:30;;;;;;;1.33;1.23;;;19.50;72.60;;;;;;5064415;28;20040;-80
2023/10/20 13:06:56;;;;;;;0.90;0.90;;;19.50;72.60;;;;;;5060859;28;20056;-80
2023/10/20 13:09:23;;;;;;;1.23;1.08;;;19.50;72.60;;;;;;5061487;28;20049;-79
2023/10/20 13:11:48;;;;;;;1.25;0.90;;;19.50;72.60;;;;;;5061663;28;20047;-80
2023/10/20 13:14:14;;;;;;;1.67;1.08;;;19.50;72.60;;;;;;5059869;28;20423;-80